createdAt,value
2023-01-09T00:02:09.326Z,2.30
2023-01-09T00:04:37.437Z,2.40
2023-01-09T00:07:04.666Z,2.30
2023-01-09T00:09:31.787Z,2.00
2023-01-09T00:11:58.888Z,2.10
2023-01-09T00:14:26.081Z,1.93
2023-01-09T00:16:55.603Z,2.30
2023-01-09T00:19:23.104Z,1.87
2023-01-09T00:21:50.252Z,2.03
2023-01-09T00:24:17.382Z,2.27
2023-01-09T00:26:44.465Z,2.27
2023-01-09T00:29:11.805Z,2.20
2023-01-09T00:31:38.939Z,2.17
2023-01-09T00:34:08.279Z,2.33
2023-01-09T00:36:35.333Z,2.47
2023-01-09T00:39:02.782Z,2.40
2023-01-09T00:41:36.170Z,2.50
2023-01-09T00:44:10.454Z,2.73
2023-01-09T00:46:44.555Z,2.47
2023-01-09T00:49:13.367Z,2.90
2023-01-09T00:51:42.133Z,2.67
2023-01-09T00:54:15.214Z,2.60
2023-01-09T00:56:42.635Z,2.47
2023-01-09T00:59:09.957Z,2.40
2023-01-09T01:01:37.170Z,3.03
2023-01-09T01:04:24.344Z,2.70
2023-01-09T01:07:10.162Z,2.30
2023-01-09T01:09:37.281Z,2.07
2023-01-09T01:12:07.361Z,2.40
2023-01-09T01:14:36.414Z,2.37
2023-01-09T01:17:04.743Z,2.40
2023-01-09T01:19:31.931Z,2.57
2023-01-09T01:21:59.187Z,2.10
2023-01-09T01:24:26.297Z,2.23
2023-01-09T01:26:53.557Z,2.80
2023-01-09T01:29:20.727Z,2.30
2023-01-09T01:31:47.848Z,2.33
2023-01-09T01:34:15.032Z,2.20
2023-01-09T01:36:42.159Z,2.00
2023-01-09T01:39:09.253Z,2.00
2023-01-09T01:41:37.798Z,2.10
2023-01-09T01:44:07.805Z,2.00
2023-01-09T01:46:35.218Z,1.80
2023-01-09T01:49:16.110Z,1.87
2023-01-09T01:51:51.574Z,1.87
2023-01-09T01:54:24.750Z,1.70
2023-01-09T01:56:57.116Z,1.77
2023-01-09T01:59:29.211Z,1.83
2023-01-09T02:02:02.249Z,1.83
2023-01-09T02:04:30.759Z,1.70
2023-01-09T02:07:00.731Z,1.77
2023-01-09T02:09:28.616Z,1.50
2023-01-09T02:11:57.696Z,1.70
2023-01-09T02:14:32.354Z,1.70
2023-01-09T02:17:28.466Z,1.80
2023-01-09T02:20:07.531Z,1.70
2023-01-09T02:23:12.789Z,1.60
2023-01-09T02:25:54.856Z,1.80
2023-01-09T02:28:43.388Z,1.73
2023-01-09T02:31:23.400Z,1.60
2023-01-09T02:34:16.147Z,2.23
2023-01-09T02:37:12.726Z,2.03
2023-01-09T02:39:47.345Z,2.03
2023-01-09T02:42:18.010Z,2.00
2023-01-09T02:44:45.504Z,1.83
2023-01-09T02:47:15.887Z,1.60
2023-01-09T02:49:48.603Z,1.90
2023-01-09T02:52:38.917Z,2.00
2023-01-09T02:55:19.695Z,2.13
2023-01-09T02:58:14.121Z,2.00
2023-01-09T03:00:49.225Z,1.70
2023-01-09T03:03:19.244Z,2.00
2023-01-09T03:05:51.508Z,1.73
2023-01-09T03:08:22.973Z,1.97
2023-01-09T03:11:04.695Z,2.00
2023-01-09T03:13:54.956Z,2.00
2023-01-09T03:16:35.702Z,1.87
2023-01-09T03:19:07.772Z,2.00
2023-01-09T03:21:35.733Z,1.80
2023-01-09T03:24:03.152Z,1.90
2023-01-09T03:26:31.262Z,1.97
2023-01-09T03:28:59.705Z,2.00
2023-01-09T03:31:27.051Z,1.70
2023-01-09T03:33:54.272Z,2.30
2023-01-09T03:36:22.370Z,2.10
2023-01-09T03:38:49.530Z,2.03
2023-01-09T03:41:16.708Z,2.20
2023-01-09T03:43:43.802Z,2.43
2023-01-09T03:46:11.208Z,2.40
2023-01-09T03:48:38.285Z,2.63
2023-01-09T03:51:05.419Z,2.37
2023-01-09T03:53:32.579Z,2.30
2023-01-09T03:55:59.707Z,3.30
2023-01-09T03:58:27.768Z,2.60
2023-01-09T04:01:01.113Z,3.80
2023-01-09T04:03:28.814Z,3.30
2023-01-09T04:05:56.153Z,3.13
2023-01-09T04:08:23.950Z,4.67
2023-01-09T04:10:51.787Z,3.53
2023-01-09T04:13:19.423Z,4.30
2023-01-09T04:15:46.704Z,3.67
2023-01-09T04:18:14.113Z,3.83
2023-01-09T04:20:41.478Z,3.47
2023-01-09T04:23:08.898Z,3.80
2023-01-09T04:25:36.235Z,3.90
2023-01-09T04:28:03.485Z,4.63
2023-01-09T04:30:31.008Z,3.83
2023-01-09T04:32:58.355Z,6.53
2023-01-09T04:35:25.597Z,4.70
2023-01-09T04:37:52.893Z,4.87
2023-01-09T04:40:20.398Z,5.20
2023-01-09T04:42:47.514Z,6.73
2023-01-09T04:45:15.799Z,4.53
2023-01-09T04:47:43.289Z,6.53
2023-01-09T04:50:11.662Z,5.50
2023-01-09T04:52:39.360Z,5.17
2023-01-09T04:55:08.228Z,7.20
2023-01-09T04:57:36.750Z,6.10
2023-01-09T05:00:05.435Z,6.07
2023-01-09T05:02:32.621Z,7.13
2023-01-09T05:05:01.347Z,6.03
2023-01-09T05:07:28.534Z,6.30
2023-01-09T05:09:55.659Z,12.67
2023-01-09T05:12:22.800Z,5.93
2023-01-09T05:14:49.927Z,6.33
2023-01-09T05:17:17.108Z,9.00
2023-01-09T05:19:45.626Z,9.83
2023-01-09T05:22:13.746Z,9.30
2023-01-09T05:24:41.114Z,9.03
2023-01-09T05:27:08.365Z,6.63
2023-01-09T05:29:35.708Z,7.43
2023-01-09T05:32:02.919Z,9.03
2023-01-09T05:34:30.138Z,9.07
2023-01-09T05:36:57.255Z,8.60
2023-01-09T05:39:24.563Z,6.97
2023-01-09T05:41:51.836Z,6.40
2023-01-09T05:44:19.042Z,6.73
2023-01-09T05:46:46.267Z,7.90
2023-01-09T05:49:13.510Z,7.57
2023-01-09T05:51:40.795Z,11.83
2023-01-09T05:54:08.216Z,7.07
2023-01-09T05:56:35.435Z,7.00
2023-01-09T05:59:02.694Z,8.00
2023-01-09T06:01:29.976Z,7.70
2023-01-09T06:03:57.287Z,8.43
2023-01-09T06:06:24.482Z,7.90
2023-01-09T06:08:51.684Z,7.43
2023-01-09T06:11:18.884Z,8.00
2023-01-09T06:13:46.295Z,8.43
2023-01-09T06:16:14.187Z,11.03
2023-01-09T06:18:41.429Z,7.17
2023-01-09T06:21:08.516Z,6.90
2023-01-09T06:23:35.631Z,5.80
2023-01-09T06:26:03.156Z,6.40
2023-01-09T06:28:30.316Z,6.70
2023-01-09T06:30:57.479Z,10.23
2023-01-09T06:33:24.692Z,7.67
2023-01-09T06:35:51.846Z,6.90
2023-01-09T06:38:19.053Z,5.13
2023-01-09T06:40:46.322Z,8.03
2023-01-09T06:43:13.607Z,6.53
2023-01-09T06:45:43.000Z,8.63
2023-01-09T06:48:10.809Z,7.70
2023-01-09T06:50:38.045Z,6.73
2023-01-09T06:53:05.314Z,5.90
2023-01-09T06:55:32.530Z,6.60
2023-01-09T06:57:59.830Z,8.67
2023-01-09T07:00:27.474Z,3.73
2023-01-09T07:02:54.709Z,3.90
2023-01-09T07:05:21.919Z,5.20
2023-01-09T07:07:49.003Z,5.80
2023-01-09T07:10:16.395Z,8.77
2023-01-09T07:12:43.626Z,5.23
2023-01-09T07:15:11.245Z,5.03
2023-01-09T07:17:38.409Z,5.23
2023-01-09T07:20:06.465Z,5.27
2023-01-09T07:22:33.607Z,7.37
2023-01-09T07:25:00.731Z,4.53
2023-01-09T07:27:27.894Z,5.23
2023-01-09T07:29:55.056Z,9.80
2023-01-09T07:32:22.227Z,6.13
2023-01-09T07:34:51.586Z,5.37
2023-01-09T07:37:19.449Z,6.37
2023-01-09T07:39:47.447Z,7.93
2023-01-09T07:42:14.743Z,7.43
2023-01-09T07:44:41.859Z,5.57
2023-01-09T07:47:08.973Z,5.53
2023-01-09T07:49:36.072Z,5.50
2023-01-09T07:52:03.884Z,6.67
2023-01-09T07:54:31.000Z,7.30
2023-01-09T07:56:58.136Z,8.17
2023-01-09T07:59:26.304Z,6.30
2023-01-09T08:01:53.440Z,8.00
2023-01-09T08:04:20.588Z,5.87
2023-01-09T08:06:47.706Z,8.63
2023-01-09T08:09:15.326Z,5.70
2023-01-09T08:11:42.913Z,6.37
2023-01-09T08:14:10.147Z,5.27
2023-01-09T08:16:37.429Z,5.43
2023-01-09T08:19:04.808Z,8.07
2023-01-09T08:21:31.999Z,8.37
2023-01-09T08:23:59.314Z,9.93
2023-01-09T08:26:26.383Z,6.10
2023-01-09T08:28:53.528Z,5.97
2023-01-09T08:31:20.621Z,6.50
2023-01-09T08:33:47.764Z,6.17
2023-01-09T08:36:14.928Z,8.43
2023-01-09T08:38:42.118Z,5.87
2023-01-09T08:41:27.739Z,5.17
2023-01-09T08:44:13.528Z,7.07
2023-01-09T08:46:59.755Z,8.60
2023-01-09T08:49:26.883Z,5.03
2023-01-09T08:51:53.952Z,4.80
2023-01-09T08:54:21.108Z,6.30
2023-01-09T08:56:48.228Z,7.67
2023-01-09T08:59:16.395Z,5.73
2023-01-09T09:01:43.538Z,9.47
2023-01-09T09:04:10.779Z,8.83
2023-01-09T09:06:37.925Z,6.23
2023-01-09T09:09:06.559Z,8.00
2023-01-09T09:11:34.423Z,8.70
2023-01-09T09:14:22.419Z,7.73
2023-01-09T09:16:50.451Z,7.20
2023-01-09T09:19:17.675Z,8.47
2023-01-09T09:21:45.696Z,9.70
2023-01-09T09:24:12.760Z,9.87
2023-01-09T09:26:39.967Z,7.87
2023-01-09T09:29:07.515Z,7.90
2023-01-09T09:31:36.373Z,8.37
2023-01-09T09:34:03.483Z,8.30
2023-01-09T09:36:30.700Z,7.03
2023-01-09T09:38:58.007Z,10.13
2023-01-09T09:41:52.083Z,8.13
2023-01-09T09:44:53.773Z,6.73
2023-01-09T09:47:33.849Z,11.73
2023-01-09T09:50:24.164Z,8.40
2023-01-09T09:53:11.695Z,6.53
2023-01-09T09:55:41.462Z,6.13
2023-01-09T09:58:41.253Z,8.67
2023-01-09T10:01:10.237Z,7.40
2023-01-09T10:04:00.371Z,6.60
2023-01-09T10:06:30.671Z,6.93
2023-01-09T10:09:32.395Z,6.30
2023-01-09T10:12:08.334Z,7.57
2023-01-09T10:14:35.540Z,6.53
2023-01-09T10:17:08.803Z,7.87
2023-01-09T10:19:45.009Z,7.27
2023-01-09T10:22:43.932Z,6.07
2023-01-09T10:25:42.892Z,6.43
2023-01-09T10:28:48.416Z,6.73
2023-01-09T10:32:10.298Z,6.30
2023-01-09T10:34:49.309Z,7.30
2023-01-09T10:37:33.979Z,6.13
2023-01-09T10:40:22.353Z,5.50
2023-01-09T10:42:57.482Z,5.97
2023-01-09T10:45:31.675Z,5.93
2023-01-09T10:48:06.323Z,6.43
2023-01-09T10:50:37.630Z,8.20
2023-01-09T10:53:26.704Z,6.17
2023-01-09T10:56:02.492Z,5.60
2023-01-09T10:58:29.747Z,6.30
2023-01-09T11:00:59.027Z,6.57
2023-01-09T11:03:28.531Z,6.67
2023-01-09T11:06:00.839Z,5.50
2023-01-09T11:08:42.992Z,9.53
2023-01-09T11:11:12.949Z,5.60
2023-01-09T11:13:45.482Z,6.10
2023-01-09T11:16:22.172Z,5.10
2023-01-09T11:19:01.238Z,5.87
2023-01-09T11:21:28.365Z,5.27
2023-01-09T11:23:56.658Z,6.13
2023-01-09T11:26:25.417Z,6.50
2023-01-09T11:29:14.529Z,7.00
2023-01-09T11:31:43.592Z,6.90
2023-01-09T11:34:32.960Z,6.13
2023-01-09T11:37:10.340Z,6.80
2023-01-09T11:39:41.884Z,7.80
2023-01-09T11:42:40.670Z,7.00
2023-01-09T11:45:34.862Z,8.20
2023-01-09T11:48:04.482Z,6.63
2023-01-09T11:50:32.380Z,6.97
2023-01-09T11:53:05.678Z,7.30
2023-01-09T11:55:41.780Z,6.87
2023-01-09T11:58:17.989Z,6.60
2023-01-09T12:00:57.262Z,6.43
2023-01-09T12:03:39.192Z,6.73
2023-01-09T12:06:59.141Z,8.10
2023-01-09T12:09:37.537Z,7.40
2023-01-09T12:12:24.145Z,7.73
2023-01-09T12:15:15.520Z,6.93
2023-01-09T12:18:13.634Z,6.50
2023-01-09T12:20:59.019Z,6.70
2023-01-09T12:24:06.779Z,7.33
2023-01-09T12:26:46.809Z,9.80
2023-01-09T12:29:22.276Z,10.00
2023-01-09T12:32:00.725Z,7.10
2023-01-09T12:34:51.935Z,6.30
2023-01-09T12:37:49.654Z,7.50
2023-01-09T12:40:16.669Z,7.10
2023-01-09T12:43:03.208Z,8.77
2023-01-09T12:46:00.045Z,7.60
2023-01-09T12:48:40.116Z,7.17
2023-01-09T12:51:28.075Z,7.53
2023-01-09T12:53:58.059Z,7.70
2023-01-09T12:56:35.166Z,9.27
2023-01-09T12:59:31.005Z,7.40
2023-01-09T13:02:17.366Z,8.37
2023-01-09T13:05:05.932Z,10.93
2023-01-09T13:07:42.363Z,8.70
2023-01-09T13:10:34.043Z,9.30
2023-01-09T13:13:08.136Z,9.70
2023-01-09T13:15:44.107Z,9.63
2023-01-09T13:18:24.626Z,9.43
2023-01-09T13:20:55.072Z,8.37
2023-01-09T13:23:28.114Z,9.07
2023-01-09T13:26:00.032Z,8.70
2023-01-09T13:28:41.059Z,9.87
2023-01-09T13:31:20.525Z,9.47
2023-01-09T13:33:56.503Z,9.03
2023-01-09T13:36:30.203Z,8.73
2023-01-09T13:38:58.879Z,8.60
2023-01-09T13:41:59.683Z,7.70
2023-01-09T13:44:28.968Z,8.20
2023-01-09T13:47:01.123Z,7.30
2023-01-09T13:50:12.080Z,8.07
2023-01-09T13:52:43.222Z,8.93
2023-01-09T13:55:15.088Z,9.40
2023-01-09T13:58:04.658Z,8.47
2023-01-09T14:00:38.183Z,10.23
2023-01-09T14:03:23.651Z,11.00
2023-01-09T14:05:50.835Z,9.73
2023-01-09T14:08:21.589Z,12.00
2023-01-09T14:10:57.876Z,11.90
2023-01-09T14:13:31.352Z,11.53
2023-01-09T14:16:23.162Z,12.43
2023-01-09T14:19:06.948Z,11.03
2023-01-09T14:21:51.271Z,11.87
2023-01-09T14:24:30.451Z,15.57
2023-01-09T14:27:00.368Z,14.57
2023-01-09T14:29:36.434Z,14.13
2023-01-09T14:32:26.638Z,17.63
2023-01-09T14:35:03.635Z,17.50
2023-01-09T14:37:32.509Z,17.10
2023-01-09T14:40:00.518Z,20.33
2023-01-09T14:42:34.490Z,22.67
2023-01-09T14:45:37.917Z,21.93
2023-01-09T14:48:07.322Z,22.40
2023-01-09T14:50:58.583Z,22.10
2023-01-09T14:53:31.651Z,24.17
2023-01-09T14:56:01.829Z,22.57
2023-01-09T14:58:36.276Z,22.13
2023-01-09T15:01:10.425Z,24.77
2023-01-09T15:03:46.614Z,21.70
2023-01-09T15:06:23.622Z,21.37
2023-01-09T15:08:58.610Z,21.40
2023-01-09T15:11:26.695Z,20.70
2023-01-09T15:13:54.263Z,19.83
2023-01-09T15:16:24.409Z,18.87
2023-01-09T15:18:58.353Z,19.67
2023-01-09T15:21:27.379Z,17.90
2023-01-09T15:23:54.529Z,17.47
2023-01-09T15:26:30.721Z,17.33
2023-01-09T15:29:04.986Z,16.80
2023-01-09T15:31:32.627Z,15.50
2023-01-09T15:34:03.028Z,13.93
2023-01-09T15:36:31.158Z,14.93
2023-01-09T15:38:59.286Z,13.33
2023-01-09T15:41:47.885Z,13.67
2023-01-09T15:44:18.191Z,12.73
2023-01-09T15:46:46.982Z,12.13
2023-01-09T15:49:14.636Z,13.13
2023-01-09T15:51:46.785Z,11.00
2023-01-09T15:54:23.555Z,10.33
2023-01-09T15:56:50.682Z,9.17
2023-01-09T15:59:28.726Z,9.67
2023-01-09T16:02:28.317Z,8.80
2023-01-09T16:04:56.227Z,8.33
2023-01-09T16:07:23.328Z,8.97
2023-01-09T16:09:53.526Z,8.10
2023-01-09T16:12:27.006Z,8.40
2023-01-09T16:15:01.798Z,9.53
2023-01-09T16:17:31.414Z,8.97
2023-01-09T16:20:12.462Z,9.50
2023-01-09T16:22:56.653Z,9.90
2023-01-09T16:25:29.793Z,12.17
2023-01-09T16:28:15.688Z,10.73
2023-01-09T16:30:53.271Z,10.60
2023-01-09T16:33:23.208Z,10.70
2023-01-09T16:35:51.220Z,10.30
2023-01-09T16:38:19.365Z,12.10
2023-01-09T16:41:18.677Z,11.40
2023-01-09T16:43:46.635Z,10.93
2023-01-09T16:46:16.000Z,10.60
2023-01-09T16:48:43.328Z,10.83
2023-01-09T16:51:17.651Z,11.17
2023-01-09T16:53:45.346Z,10.13
2023-01-09T16:56:17.744Z,10.43
2023-01-09T16:58:46.356Z,10.93
2023-01-09T17:01:16.489Z,10.87
2023-01-09T17:03:44.303Z,10.60
2023-01-09T17:06:19.799Z,11.50
2023-01-09T17:08:47.118Z,11.43
2023-01-09T17:11:20.568Z,11.17
2023-01-09T17:13:48.317Z,11.67
2023-01-09T17:16:17.353Z,11.40
2023-01-09T17:18:44.887Z,13.67
2023-01-09T17:21:21.085Z,12.73
2023-01-09T17:24:08.738Z,13.17
2023-01-09T17:26:57.109Z,14.27
2023-01-09T17:29:24.562Z,13.67
2023-01-09T17:31:51.677Z,13.53
2023-01-09T17:34:18.875Z,14.13
2023-01-09T17:36:46.181Z,12.77
2023-01-09T17:39:15.003Z,14.53
2023-01-09T17:41:42.351Z,14.17
2023-01-09T17:44:11.328Z,13.60
2023-01-09T17:46:40.981Z,14.13
2023-01-09T17:49:19.787Z,14.07
2023-01-09T17:51:47.125Z,14.90
2023-01-09T17:54:15.232Z,14.87
2023-01-09T17:56:45.416Z,14.00
2023-01-09T17:59:14.296Z,15.30
2023-01-09T18:01:43.024Z,14.47
2023-01-09T18:04:11.230Z,14.33
2023-01-09T18:06:38.885Z,13.60
2023-01-09T18:09:07.361Z,13.47
2023-01-09T18:11:34.824Z,12.73
2023-01-09T18:14:01.948Z,12.77
2023-01-09T18:16:29.344Z,12.80
2023-01-09T18:18:58.530Z,12.80
2023-01-09T18:21:27.546Z,12.27
2023-01-09T18:23:55.400Z,12.77
2023-01-09T18:26:23.079Z,11.60
2023-01-09T18:28:52.646Z,12.50
2023-01-09T18:31:23.539Z,11.83
2023-01-09T18:33:52.432Z,12.57
2023-01-09T18:36:22.715Z,12.80
2023-01-09T18:38:53.707Z,12.60
2023-01-09T18:41:22.084Z,12.17
2023-01-09T18:43:53.897Z,12.27
2023-01-09T18:46:24.779Z,11.53
2023-01-09T18:48:56.860Z,12.03
2023-01-09T18:51:25.632Z,12.73
2023-01-09T18:53:53.914Z,12.83
2023-01-09T18:56:23.426Z,13.53
2023-01-09T18:58:56.192Z,12.43
2023-01-09T19:01:23.814Z,13.80
2023-01-09T19:03:51.080Z,13.10
2023-01-09T19:06:18.355Z,15.77
2023-01-09T19:08:45.517Z,15.10
2023-01-09T19:11:12.883Z,15.77
2023-01-09T19:13:40.109Z,16.87
2023-01-09T19:16:08.646Z,17.60
2023-01-09T19:18:40.962Z,19.27
2023-01-09T19:21:17.393Z,19.37
2023-01-09T19:23:45.648Z,19.93
2023-01-09T19:26:36.766Z,21.70
2023-01-09T19:29:03.894Z,23.17
2023-01-09T19:31:31.127Z,22.30
2023-01-09T19:33:58.882Z,23.67
2023-01-09T19:36:26.730Z,22.17
2023-01-09T19:39:01.275Z,20.83
2023-01-09T19:41:29.095Z,21.73
2023-01-09T19:43:56.329Z,21.73
2023-01-09T19:46:25.255Z,22.23
2023-01-09T19:48:53.359Z,21.33
2023-01-09T19:51:22.045Z,23.60
2023-01-09T19:53:54.396Z,22.60
2023-01-09T19:56:23.874Z,23.97
2023-01-09T19:58:53.482Z,23.47
2023-01-09T20:01:28.731Z,26.53
2023-01-09T20:03:57.414Z,26.10
2023-01-09T20:06:26.571Z,25.07
2023-01-09T20:08:59.600Z,23.23
2023-01-09T20:11:29.522Z,25.23
2023-01-09T20:13:56.831Z,24.20
2023-01-09T20:16:30.624Z,23.87
2023-01-09T20:19:00.520Z,24.73
2023-01-09T20:21:28.971Z,23.90
2023-01-09T20:23:59.467Z,22.83
2023-01-09T20:26:27.736Z,21.00
2023-01-09T20:28:56.355Z,21.17
2023-01-09T20:31:25.392Z,19.67
2023-01-09T20:33:53.104Z,18.00
2023-01-09T20:36:27.592Z,16.97
2023-01-09T20:38:55.713Z,18.20
2023-01-09T20:41:23.234Z,17.07
2023-01-09T20:43:53.951Z,17.37
2023-01-09T20:46:24.849Z,16.70
2023-01-09T20:48:54.616Z,17.47
2023-01-09T20:51:21.979Z,17.70
2023-01-09T20:53:56.033Z,16.70
2023-01-09T20:56:26.599Z,15.47
2023-01-09T20:58:54.413Z,15.97
2023-01-09T21:01:25.367Z,16.07
2023-01-09T21:03:54.908Z,15.47
2023-01-09T21:06:24.295Z,14.37
2023-01-09T21:08:53.196Z,14.77
2023-01-09T21:11:21.961Z,13.53
2023-01-09T21:13:50.070Z,13.83
2023-01-09T21:16:20.288Z,14.43
2023-01-09T21:18:48.310Z,14.20
2023-01-09T21:21:21.675Z,14.00
2023-01-09T21:23:54.631Z,12.73
2023-01-09T21:26:26.159Z,13.17
2023-01-09T21:28:55.424Z,13.17
2023-01-09T21:31:35.660Z,13.23
2023-01-09T21:34:07.959Z,12.43
2023-01-09T21:36:35.942Z,12.67
2023-01-09T21:39:07.622Z,12.70
2023-01-09T21:41:54.338Z,12.80
2023-01-09T21:44:40.123Z,12.37
2023-01-09T21:47:07.234Z,12.50
2023-01-09T21:49:36.160Z,11.77
2023-01-09T21:52:04.775Z,11.93
2023-01-09T21:54:33.061Z,11.13
2023-01-09T21:57:00.379Z,11.77
2023-01-09T21:59:29.195Z,11.57
2023-01-09T22:01:56.736Z,12.37
2023-01-09T22:04:28.358Z,12.33
2023-01-09T22:06:55.886Z,11.87
2023-01-09T22:09:23.604Z,11.17
2023-01-09T22:11:50.768Z,10.87
2023-01-09T22:14:19.440Z,10.10
2023-01-09T22:16:47.001Z,10.40
2023-01-09T22:19:18.054Z,9.87
2023-01-09T22:21:45.614Z,9.07
2023-01-09T22:24:15.118Z,9.57
2023-01-09T22:26:42.453Z,9.17
2023-01-09T22:29:09.676Z,8.40
2023-01-09T22:31:39.997Z,7.87
2023-01-09T22:34:07.923Z,7.40
2023-01-09T22:36:35.268Z,7.53
2023-01-09T22:39:02.549Z,6.90
2023-01-09T22:41:30.735Z,7.20
2023-01-09T22:43:58.613Z,6.90
2023-01-09T22:46:26.323Z,7.00
2023-01-09T22:48:53.569Z,7.33
2023-01-09T22:51:22.025Z,7.27
2023-01-09T22:53:49.749Z,7.40
2023-01-09T22:56:19.122Z,7.37
2023-01-09T22:58:54.097Z,7.47
2023-01-09T23:01:22.841Z,7.03
2023-01-09T23:03:50.411Z,7.50
2023-01-09T23:06:20.665Z,6.73
2023-01-09T23:08:52.857Z,7.00
2023-01-09T23:11:42.786Z,7.20
2023-01-09T23:14:11.451Z,6.80
2023-01-09T23:16:38.629Z,7.23
2023-01-09T23:19:07.510Z,6.57
2023-01-09T23:21:34.855Z,6.60
2023-01-09T23:24:02.066Z,6.53
2023-01-09T23:26:29.294Z,6.57
2023-01-09T23:28:56.452Z,7.00
2023-01-09T23:31:23.775Z,7.27
2023-01-09T23:33:50.945Z,7.40
2023-01-09T23:36:18.089Z,7.50
2023-01-09T23:38:45.436Z,7.60
2023-01-09T23:41:12.617Z,7.43
2023-01-09T23:43:42.232Z,6.77
2023-01-09T23:46:09.646Z,7.03
2023-01-09T23:48:36.825Z,6.87
2023-01-09T23:51:06.232Z,6.47
2023-01-09T23:53:33.351Z,6.90
2023-01-09T23:56:01.289Z,7.10
2023-01-09T23:58:28.730Z,7.73
